Woodland, Mississippi
Current Conditions -  °F | °C
As of 6:35 AM on Monday 20 Oct 2014 (Local Time) from KM40 Reporting Station
Haze Haze  
Wind Chill:   Ceiling: Unl
Heat Index:   Visibility: 4mi
Dew Point: -1°   Wind: 0mph
Humidity: 70%   Direction: NA
Pressure: 30.1"   Gusts: NA
Location:  33.78°N, 89.05°W
Report Text: KM40 201135Z AUTO 00000KT 4SM HZ CLR 04/M01 A3010 RMK AO2
Loading
Personal Weather Stations






























Interactive Weather Map
Tropical Storm Tracking
New forecast layout! Learn more

10-Day Weather Forecast

Advertisements
Track Severe Weather on mobile